createdAt,value
2019-05-03T00:02:26.857Z,18.57
2019-05-03T00:05:12.498Z,19.93
2019-05-03T00:07:44.550Z,19.13
2019-05-03T00:10:17.157Z,20.03
2019-05-03T00:12:48.938Z,19.73
2019-05-03T00:15:45.500Z,21.87
2019-05-03T00:18:17.537Z,21.50
2019-05-03T00:20:49.289Z,21.03
2019-05-03T00:23:22.825Z,22.07
2019-05-03T00:25:54.374Z,20.53
2019-05-03T00:28:26.182Z,21.70
2019-05-03T00:30:57.604Z,19.60
2019-05-03T00:33:31.730Z,20.47
2019-05-03T00:36:32.671Z,21.23
2019-05-03T00:39:21.702Z,21.10
2019-05-03T00:41:53.375Z,20.67
2019-05-03T00:44:24.690Z,21.27
2019-05-03T00:46:57.311Z,21.00
2019-05-03T00:49:28.714Z,21.20
2019-05-03T00:52:02.209Z,21.90
2019-05-03T00:54:33.703Z,21.33
2019-05-03T00:57:05.131Z,22.67
2019-05-03T00:59:36.340Z,22.50
2019-05-03T01:02:07.713Z,21.87
2019-05-03T01:04:39.152Z,22.90
2019-05-03T01:07:11.759Z,22.60
2019-05-03T01:09:43.630Z,22.80
2019-05-03T01:12:15.420Z,23.17
2019-05-03T01:14:51.544Z,23.23
2019-05-03T01:17:23.273Z,24.60
2019-05-03T01:19:54.886Z,24.13
2019-05-03T01:22:26.343Z,25.10
2019-05-03T01:24:58.065Z,23.77
2019-05-03T01:27:29.362Z,25.77
2019-05-03T01:30:02.981Z,26.47
2019-05-03T01:32:35.793Z,25.43
2019-05-03T01:35:08.483Z,25.80
2019-05-03T01:37:40.100Z,26.27
2019-05-03T01:40:12.519Z,24.70
2019-05-03T01:42:44.003Z,25.20
2019-05-03T01:45:16.040Z,26.13
2019-05-03T01:47:56.998Z,26.93
2019-05-03T01:50:39.672Z,27.10
2019-05-03T01:53:13.937Z,26.97
2019-05-03T01:55:52.345Z,28.07
2019-05-03T01:58:24.532Z,27.57
2019-05-03T02:01:06.293Z,27.73
2019-05-03T02:03:44.303Z,29.13
2019-05-03T02:06:15.715Z,29.43
2019-05-03T02:08:47.176Z,30.73
2019-05-03T02:11:18.912Z,29.53
2019-05-03T02:13:52.139Z,29.87
2019-05-03T02:16:23.816Z,31.07
2019-05-03T02:18:55.540Z,31.60
2019-05-03T02:21:26.842Z,30.57
2019-05-03T02:23:58.052Z,31.57
2019-05-03T02:26:29.519Z,31.97
2019-05-03T02:29:01.858Z,32.73
2019-05-03T02:31:33.260Z,31.27
2019-05-03T02:34:04.624Z,33.17
2019-05-03T02:36:36.315Z,32.83
2019-05-03T02:39:13.520Z,32.27
2019-05-03T02:41:47.969Z,33.60
2019-05-03T02:44:21.216Z,34.47
2019-05-03T02:47:17.670Z,33.70
2019-05-03T02:49:55.995Z,34.53
2019-05-03T02:52:37.572Z,35.53
2019-05-03T02:55:11.734Z,35.53
2019-05-03T02:57:46.229Z,36.17
2019-05-03T03:00:17.804Z,36.00
2019-05-03T03:02:49.346Z,34.87
2019-05-03T03:05:21.711Z,35.03
2019-05-03T03:07:55.908Z,34.90
2019-05-03T03:10:28.920Z,35.37
2019-05-03T03:13:05.904Z,35.87
2019-05-03T03:15:41.325Z,35.07
2019-05-03T03:18:15.783Z,35.40
2019-05-03T03:20:50.421Z,34.93
2019-05-03T03:23:26.565Z,35.63
2019-05-03T03:26:00.693Z,34.33
2019-05-03T03:28:36.747Z,34.00
2019-05-03T03:32:10.295Z,35.03
2019-05-03T03:35:11.068Z,33.73
2019-05-03T03:37:39.332Z,33.73
2019-05-03T03:40:11.315Z,35.17
2019-05-03T03:42:44.964Z,35.53
2019-05-03T03:45:16.836Z,34.93
2019-05-03T03:47:56.230Z,35.03
2019-05-03T03:50:29.876Z,36.03
2019-05-03T03:53:06.741Z,36.23
2019-05-03T03:55:45.664Z,36.57
2019-05-03T03:58:22.391Z,35.77
2019-05-03T04:00:50.577Z,35.70
2019-05-03T04:03:25.698Z,34.57
2019-05-03T04:05:56.675Z,35.27
2019-05-03T04:08:29.258Z,35.50
2019-05-03T04:11:01.598Z,34.67
2019-05-03T04:13:36.121Z,35.13
2019-05-03T04:16:20.727Z,36.43
2019-05-03T04:19:12.117Z,34.40
2019-05-03T04:21:45.308Z,32.67
2019-05-03T04:24:17.490Z,35.83
2019-05-03T04:26:52.859Z,37.83
2019-05-03T04:29:25.383Z,35.30
2019-05-03T04:31:57.329Z,34.73
2019-05-03T04:34:28.608Z,34.57
2019-05-03T04:37:00.402Z,35.40
2019-05-03T04:39:32.089Z,33.33
2019-05-03T04:42:06.338Z,32.80
2019-05-03T04:44:36.853Z,34.43
2019-05-03T04:47:08.352Z,35.23
2019-05-03T04:49:39.661Z,35.17
2019-05-03T04:52:11.304Z,34.87
2019-05-03T04:55:01.473Z,34.43
2019-05-03T04:57:40.505Z,32.83
2019-05-03T05:00:11.320Z,33.10
2019-05-03T05:02:42.067Z,35.50
2019-05-03T05:05:15.446Z,35.70
2019-05-03T05:07:47.036Z,33.23
2019-05-03T05:10:18.484Z,33.47
2019-05-03T05:12:49.799Z,34.87
2019-05-03T05:15:21.590Z,32.83
2019-05-03T05:18:21.052Z,32.00
2019-05-03T05:21:09.361Z,33.87
2019-05-03T05:23:58.364Z,33.90
2019-05-03T05:26:55.190Z,30.53
2019-05-03T05:29:28.972Z,31.63
2019-05-03T05:32:01.009Z,33.33
2019-05-03T05:34:34.901Z,32.83
2019-05-03T05:37:06.545Z,34.30
2019-05-03T05:39:38.019Z,34.00
2019-05-03T05:42:09.467Z,31.63
2019-05-03T05:44:40.866Z,30.47
2019-05-03T05:47:26.060Z,30.23
2019-05-03T05:50:01.464Z,34.03
2019-05-03T05:52:34.616Z,28.43
2019-05-03T05:55:26.246Z,29.33
2019-05-03T05:58:10.099Z,31.13
2019-05-03T06:01:00.208Z,31.27
2019-05-03T06:03:31.602Z,29.37
2019-05-03T06:06:05.817Z,29.60
2019-05-03T06:08:40.748Z,30.20
2019-05-03T06:11:37.046Z,29.10
2019-05-03T06:14:15.745Z,27.63
2019-05-03T06:17:01.625Z,27.67
2019-05-03T06:19:45.921Z,28.77
2019-05-03T06:22:31.135Z,28.93
2019-05-03T06:25:12.783Z,28.47
2019-05-03T06:27:44.969Z,29.20
2019-05-03T06:30:24.895Z,28.77
2019-05-03T06:32:56.518Z,27.43
2019-05-03T06:35:28.176Z,27.03
2019-05-03T06:37:59.866Z,27.83
2019-05-03T06:40:31.298Z,26.03
2019-05-03T06:43:09.210Z,27.80
2019-05-03T06:45:35.899Z,27.07
2019-05-03T06:48:07.328Z,25.43
2019-05-03T06:50:38.705Z,27.27
2019-05-03T06:53:12.864Z,26.00
2019-05-03T06:55:45.526Z,24.20
2019-05-03T06:58:30.553Z,22.03
2019-05-03T07:01:21.009Z,21.27
2019-05-03T07:04:26.563Z,22.37
2019-05-03T07:07:16.770Z,21.93
2019-05-03T07:09:54.576Z,22.57
2019-05-03T07:12:26.162Z,21.93
2019-05-03T07:14:57.805Z,20.77
2019-05-03T07:17:29.110Z,20.53
2019-05-03T07:20:00.485Z,20.73
2019-05-03T07:22:32.501Z,19.87
2019-05-03T07:25:04.671Z,19.60
2019-05-03T07:27:36.150Z,20.37
2019-05-03T07:30:07.626Z,20.07
2019-05-03T07:32:41.089Z,19.87
2019-05-03T07:35:14.776Z,20.37
2019-05-03T07:37:46.496Z,18.87
2019-05-03T07:40:18.343Z,19.77
2019-05-03T07:42:49.745Z,19.57
2019-05-03T07:45:21.465Z,18.47
2019-05-03T07:47:55.841Z,17.97
2019-05-03T07:50:27.521Z,18.23
2019-05-03T07:52:58.875Z,17.70
2019-05-03T07:55:47.984Z,17.20
2019-05-03T07:58:21.756Z,16.30
2019-05-03T08:01:05.804Z,17.27
2019-05-03T08:03:28.742Z,17.33
2019-05-03T08:06:00.581Z,16.47
2019-05-03T08:08:32.406Z,16.80
2019-05-03T08:11:05.329Z,17.57
2019-05-03T08:13:36.887Z,17.80
2019-05-03T08:16:08.375Z,17.70
2019-05-03T08:18:40.433Z,17.37
2019-05-03T08:21:11.895Z,17.73
2019-05-03T08:23:45.165Z,18.20
2019-05-03T08:26:16.299Z,17.17
2019-05-03T08:28:47.810Z,17.23
2019-05-03T08:31:38.077Z,17.27
2019-05-03T08:34:19.304Z,18.17
2019-05-03T08:37:15.975Z,18.40
2019-05-03T08:39:47.716Z,17.47
2019-05-03T08:42:25.392Z,17.33
2019-05-03T08:44:57.727Z,18.03
2019-05-03T08:47:29.237Z,17.37
2019-05-03T08:50:00.784Z,18.03
2019-05-03T08:52:32.115Z,17.77
2019-05-03T08:55:05.214Z,17.77
2019-05-03T08:57:37.173Z,18.20
2019-05-03T09:00:14.496Z,17.40
2019-05-03T09:02:45.985Z,18.13
2019-05-03T09:05:18.608Z,17.53
2019-05-03T09:07:50.893Z,17.93
2019-05-03T09:10:30.272Z,16.43
2019-05-03T09:13:06.840Z,16.87
2019-05-03T09:15:38.884Z,16.77
2019-05-03T09:18:10.611Z,16.90
2019-05-03T09:20:42.068Z,17.83
2019-05-03T09:23:14.876Z,17.73
2019-05-03T09:25:46.838Z,16.90
2019-05-03T09:28:18.156Z,16.87
2019-05-03T09:30:49.490Z,14.80
2019-05-03T09:33:21.258Z,12.07
2019-05-03T09:35:54.957Z,10.90
2019-05-03T09:38:26.805Z,10.17
2019-05-03T09:40:58.180Z,9.23
2019-05-03T09:43:29.796Z,8.73
2019-05-03T09:46:01.210Z,7.77
2019-05-03T09:48:34.718Z,7.30
2019-05-03T09:51:06.033Z,7.60
2019-05-03T09:53:45.435Z,8.37
2019-05-03T09:56:18.573Z,8.53
2019-05-03T09:58:49.957Z,9.77
2019-05-03T10:01:21.312Z,9.80
2019-05-03T10:03:54.791Z,10.03
2019-05-03T10:06:25.955Z,11.00
2019-05-03T10:08:57.194Z,11.13
2019-05-03T10:11:28.505Z,11.80
2019-05-03T10:14:00.218Z,12.00
2019-05-03T10:16:36.462Z,12.73
2019-05-03T10:19:08.316Z,13.27
2019-05-03T10:21:42.465Z,13.10
2019-05-03T10:24:15.225Z,13.67
2019-05-03T10:26:48.433Z,14.50
2019-05-03T10:29:20.066Z,13.73
2019-05-03T10:31:59.719Z,13.77
2019-05-03T10:34:31.364Z,13.90
2019-05-03T10:37:05.185Z,13.43
2019-05-03T10:39:37.987Z,13.67
2019-05-03T10:42:09.454Z,14.83
2019-05-03T10:44:40.782Z,13.77
2019-05-03T10:47:12.105Z,13.00
2019-05-03T10:49:45.768Z,14.03
2019-05-03T10:52:19.183Z,13.43
2019-05-03T10:54:51.030Z,12.53
2019-05-03T10:57:37.794Z,12.17
2019-05-03T11:00:39.309Z,13.07
2019-05-03T11:02:50.134Z,12.13
2019-05-03T11:05:21.744Z,11.33
2019-05-03T11:07:55.640Z,11.97
2019-05-03T11:10:27.499Z,13.10
2019-05-03T11:12:59.074Z,12.23
2019-05-03T11:15:30.631Z,12.10
2019-05-03T11:18:02.073Z,12.13
2019-05-03T11:20:37.558Z,12.80
2019-05-03T11:23:09.696Z,11.70
2019-05-03T11:25:41.074Z,10.50
2019-05-03T11:28:19.194Z,10.40
2019-05-03T11:30:56.495Z,9.70
2019-05-03T11:33:39.864Z,10.27
2019-05-03T11:36:27.628Z,9.80
2019-05-03T11:38:59.161Z,9.50
2019-05-03T11:41:32.938Z,9.70
2019-05-03T11:44:24.495Z,9.30
2019-05-03T11:46:55.831Z,9.70
2019-05-03T11:49:28.067Z,9.13
2019-05-03T11:51:59.529Z,9.27
2019-05-03T11:54:30.941Z,8.17
2019-05-03T11:57:05.257Z,8.43
2019-05-03T11:59:36.986Z,8.57
2019-05-03T12:02:19.726Z,8.63
2019-05-03T12:04:51.020Z,6.47
2019-05-03T12:07:39.494Z,6.57
2019-05-03T12:10:17.609Z,5.53
2019-05-03T12:12:44.541Z,4.60
2019-05-03T12:15:17.169Z,4.73
2019-05-03T12:17:55.306Z,4.40
2019-05-03T12:20:28.644Z,4.90
2019-05-03T12:23:00.288Z,5.07
2019-05-03T12:25:32.700Z,4.50
2019-05-03T12:28:06.248Z,4.33
2019-05-03T12:30:37.635Z,4.17
2019-05-03T12:33:10.255Z,3.80
2019-05-03T12:35:41.678Z,3.00
2019-05-03T12:38:16.279Z,2.80
2019-05-03T12:40:47.120Z,2.40
2019-05-03T12:43:18.485Z,2.63
2019-05-03T12:45:49.850Z,2.60
2019-05-03T12:48:21.680Z,2.60
2019-05-03T12:50:54.577Z,3.17
2019-05-03T12:53:26.101Z,3.10
2019-05-03T12:55:57.818Z,3.00
2019-05-03T12:59:06.481Z,2.80
2019-05-03T13:01:48.462Z,2.73
2019-05-03T13:04:24.699Z,2.50
2019-05-03T13:07:03.146Z,2.60
2019-05-03T13:09:35.753Z,2.60
2019-05-03T13:12:09.667Z,2.30
2019-05-03T13:14:40.923Z,2.20
2019-05-03T13:17:12.467Z,2.23
2019-05-03T13:19:45.222Z,2.10
2019-05-03T13:22:16.695Z,2.00
2019-05-03T13:24:47.915Z,2.30
2019-05-03T13:27:19.209Z,2.10
2019-05-03T13:29:50.655Z,2.10
2019-05-03T13:32:22.022Z,2.40
2019-05-03T13:34:55.290Z,2.00
2019-05-03T13:37:27.011Z,2.37
2019-05-03T13:39:58.297Z,2.20
2019-05-03T13:42:29.737Z,2.50
2019-05-03T13:45:01.631Z,2.60
2019-05-03T13:47:35.047Z,2.30
2019-05-03T13:50:07.543Z,2.30
2019-05-03T13:52:39.318Z,2.33
2019-05-03T13:55:10.979Z,2.40
2019-05-03T13:57:42.293Z,2.50
2019-05-03T14:00:15.223Z,2.40
2019-05-03T14:02:46.745Z,2.20
2019-05-03T14:05:19.178Z,2.40
2019-05-03T14:07:50.626Z,2.70
2019-05-03T14:10:24.985Z,2.67
2019-05-03T14:12:56.639Z,2.93
2019-05-03T14:15:28.197Z,2.70
2019-05-03T14:17:59.478Z,2.80
2019-05-03T14:20:43.333Z,2.47
2019-05-03T14:23:15.360Z,2.83
2019-05-03T14:25:47.014Z,2.30
2019-05-03T14:28:18.643Z,2.80
2019-05-03T14:30:50.067Z,2.90
2019-05-03T14:33:21.523Z,2.77
2019-05-03T14:35:54.714Z,2.90
2019-05-03T14:38:25.774Z,2.63
2019-05-03T14:40:57.025Z,2.93
2019-05-03T14:43:28.697Z,2.70
2019-05-03T14:46:00.896Z,3.33
2019-05-03T14:48:32.480Z,3.17
2019-05-03T14:51:05.462Z,2.93
2019-05-03T14:53:37.618Z,2.87
2019-05-03T14:56:20.324Z,3.00
2019-05-03T14:59:19.927Z,2.90
2019-05-03T15:02:16.415Z,3.03
2019-05-03T15:04:48.285Z,3.20
2019-05-03T15:07:19.718Z,3.20
2019-05-03T15:09:51.001Z,2.87
2019-05-03T15:12:22.466Z,3.40
2019-05-03T15:14:54.606Z,3.50
2019-05-03T15:17:26.111Z,3.43
2019-05-03T15:19:57.548Z,3.50
2019-05-03T15:22:29.872Z,3.70
2019-05-03T15:25:01.961Z,3.40
2019-05-03T15:27:39.145Z,3.70
2019-05-03T15:30:12.583Z,3.67
2019-05-03T15:32:56.587Z,3.70
2019-05-03T15:35:26.670Z,3.50
2019-05-03T15:37:58.419Z,3.60
2019-05-03T15:40:31.432Z,3.80
2019-05-03T15:43:10.945Z,3.50
2019-05-03T15:45:58.784Z,3.60
2019-05-03T15:48:35.136Z,3.43
2019-05-03T15:51:07.141Z,3.60
2019-05-03T15:53:41.671Z,4.57
2019-05-03T15:56:14.711Z,3.90
2019-05-03T15:58:46.970Z,4.13
2019-05-03T16:01:18.582Z,3.60
2019-05-03T16:03:50.068Z,3.93
2019-05-03T16:06:22.170Z,3.50
2019-05-03T16:08:55.289Z,3.60
2019-05-03T16:11:27.210Z,3.50
2019-05-03T16:13:58.806Z,3.63
2019-05-03T16:16:30.838Z,3.80
2019-05-03T16:19:02.558Z,3.80
2019-05-03T16:21:37.178Z,3.80
2019-05-03T16:24:08.622Z,3.20
2019-05-03T16:26:59.102Z,3.47
2019-05-03T16:29:30.660Z,4.00
2019-05-03T16:32:01.974Z,3.70
2019-05-03T16:34:35.050Z,3.90
2019-05-03T16:37:07.661Z,3.80
2019-05-03T16:39:39.239Z,3.80
2019-05-03T16:42:15.465Z,4.07
2019-05-03T16:44:47.158Z,4.00
2019-05-03T16:47:18.556Z,3.83
2019-05-03T16:49:50.045Z,3.73
2019-05-03T16:52:21.594Z,4.60
2019-05-03T16:54:54.765Z,4.50
2019-05-03T16:57:26.263Z,4.90
2019-05-03T16:59:57.633Z,4.53
2019-05-03T17:02:29.206Z,4.80
2019-05-03T17:05:07.613Z,4.70
2019-05-03T17:08:01.120Z,5.00
2019-05-03T17:10:38.753Z,6.60
2019-05-03T17:13:25.229Z,6.60
2019-05-03T17:15:56.987Z,6.30
2019-05-03T17:18:29.096Z,8.90
2019-05-03T17:21:01.489Z,10.87
2019-05-03T17:23:35.146Z,7.53
2019-05-03T17:26:06.629Z,7.87
2019-05-03T17:28:38.300Z,7.30
2019-05-03T17:31:09.569Z,6.30
2019-05-03T17:33:50.604Z,5.93
2019-05-03T17:36:14.383Z,6.67
2019-05-03T17:38:47.587Z,6.90
2019-05-03T17:41:47.347Z,5.87
2019-05-03T17:44:23.591Z,5.83
2019-05-03T17:46:55.067Z,6.20
2019-05-03T17:49:26.433Z,5.63
2019-05-03T17:52:22.759Z,5.00
2019-05-03T17:55:12.102Z,5.43
2019-05-03T17:58:08.359Z,5.23
2019-05-03T18:01:16.690Z,4.60
2019-05-03T18:03:50.741Z,5.60
2019-05-03T18:06:28.802Z,5.37
2019-05-03T18:09:06.981Z,5.47
2019-05-03T18:11:41.454Z,5.77
2019-05-03T18:14:14.655Z,6.17
2019-05-03T18:16:46.477Z,5.50
2019-05-03T18:19:18.852Z,5.70
2019-05-03T18:21:50.120Z,5.70
2019-05-03T18:24:21.595Z,5.83
2019-05-03T18:26:53.069Z,5.50
2019-05-03T18:29:25.228Z,5.20
2019-05-03T18:31:56.742Z,5.40
2019-05-03T18:34:28.198Z,5.93
2019-05-03T18:36:59.667Z,9.63
2019-05-03T18:39:30.916Z,10.00
2019-05-03T18:42:04.920Z,8.37
2019-05-03T18:44:42.058Z,7.80
2019-05-03T18:47:17.236Z,7.77
2019-05-03T18:49:49.348Z,5.77
2019-05-03T18:52:20.910Z,5.20
2019-05-03T18:54:52.215Z,5.70
2019-05-03T18:57:25.425Z,5.40
2019-05-03T18:59:56.902Z,5.00
2019-05-03T19:02:28.336Z,5.87
2019-05-03T19:04:59.546Z,5.70
2019-05-03T19:07:47.593Z,5.50
2019-05-03T19:10:31.471Z,5.87
2019-05-03T19:13:09.899Z,5.80
2019-05-03T19:15:41.489Z,6.10
2019-05-03T19:18:21.672Z,6.10
2019-05-03T19:20:54.982Z,6.73
2019-05-03T19:23:26.131Z,5.60
2019-05-03T19:25:57.708Z,5.73
2019-05-03T19:28:29.063Z,6.07
2019-05-03T19:31:01.358Z,5.97
2019-05-03T19:33:32.711Z,6.13
2019-05-03T19:36:04.519Z,5.97
2019-05-03T19:38:35.934Z,6.33
2019-05-03T19:41:07.468Z,5.67
2019-05-03T19:43:38.851Z,7.27
2019-05-03T19:46:10.125Z,6.73
2019-05-03T19:48:41.454Z,6.70
2019-05-03T19:51:12.806Z,6.33
2019-05-03T19:53:52.055Z,6.43
2019-05-03T19:56:25.480Z,6.53
2019-05-03T19:59:01.569Z,5.90
2019-05-03T20:01:45.257Z,6.27
2019-05-03T20:04:41.492Z,6.43
2019-05-03T20:07:34.543Z,7.37
2019-05-03T20:10:06.714Z,7.73
2019-05-03T20:12:38.006Z,7.27
2019-05-03T20:15:09.756Z,6.00
2019-05-03T20:17:53.995Z,6.37
2019-05-03T20:20:15.504Z,6.30
2019-05-03T20:22:47.683Z,6.20
2019-05-03T20:25:20.422Z,6.97
2019-05-03T20:27:51.963Z,7.37
2019-05-03T20:30:25.382Z,9.13
2019-05-03T20:32:56.888Z,8.90
2019-05-03T20:35:28.266Z,8.73
2019-05-03T20:37:59.677Z,8.33
2019-05-03T20:40:31.106Z,7.90
2019-05-03T20:43:10.047Z,9.03
2019-05-03T20:46:15.976Z,8.67
2019-05-03T20:48:50.275Z,9.10
2019-05-03T20:51:21.914Z,8.90
2019-05-03T20:53:55.269Z,8.53
2019-05-03T20:56:27.312Z,8.50
2019-05-03T20:58:59.563Z,9.10
2019-05-03T21:01:32.093Z,9.03
2019-05-03T21:04:04.796Z,9.03
2019-05-03T21:06:37.168Z,9.37
2019-05-03T21:09:09.826Z,9.50
2019-05-03T21:11:44.821Z,9.00
2019-05-03T21:14:16.689Z,8.90
2019-05-03T21:17:11.176Z,8.97
2019-05-03T21:19:50.753Z,9.17
2019-05-03T21:22:30.140Z,9.73
2019-05-03T21:25:25.317Z,8.93
2019-05-03T21:27:56.893Z,8.53
2019-05-03T21:30:28.351Z,8.80
2019-05-03T21:32:59.617Z,8.77
2019-05-03T21:35:39.390Z,8.70
2019-05-03T21:38:04.725Z,9.30
2019-05-03T21:40:36.329Z,8.50
2019-05-03T21:43:07.735Z,9.10
2019-05-03T21:45:45.361Z,9.43
2019-05-03T21:48:25.356Z,8.93
2019-05-03T21:50:57.122Z,8.83
2019-05-03T21:53:28.421Z,8.90
2019-05-03T21:55:59.702Z,8.60
2019-05-03T21:58:31.282Z,8.50
2019-05-03T22:01:07.091Z,8.13
2019-05-03T22:03:39.518Z,7.87
2019-05-03T22:06:10.870Z,7.13
2019-05-03T22:08:42.324Z,7.10
2019-05-03T22:11:14.877Z,7.50
2019-05-03T22:13:48.124Z,7.27
2019-05-03T22:16:37.358Z,7.90
2019-05-03T22:19:08.979Z,7.60
2019-05-03T22:21:46.602Z,8.13
2019-05-03T22:24:42.150Z,8.43
2019-05-03T22:27:17.650Z,8.77
2019-05-03T22:29:49.806Z,8.07
2019-05-03T22:32:21.380Z,8.00
2019-05-03T22:34:52.795Z,8.03
2019-05-03T22:37:25.283Z,7.47
2019-05-03T22:39:57.606Z,7.90
2019-05-03T22:42:28.981Z,7.07
2019-05-03T22:45:00.348Z,7.00
2019-05-03T22:47:31.804Z,7.10
2019-05-03T22:50:05.282Z,6.87
2019-05-03T22:52:36.261Z,7.30
2019-05-03T22:55:08.063Z,6.60
2019-05-03T22:57:39.341Z,7.23
2019-05-03T23:00:11.877Z,7.57
2019-05-03T23:02:45.549Z,7.60
2019-05-03T23:05:17.146Z,7.30
2019-05-03T23:07:48.455Z,7.40
2019-05-03T23:10:20.263Z,7.60
2019-05-03T23:12:51.620Z,7.77
2019-05-03T23:15:24.414Z,8.13
2019-05-03T23:17:55.919Z,7.80
2019-05-03T23:20:42.617Z,7.70
2019-05-03T23:23:32.889Z,7.50
2019-05-03T23:26:04.576Z,8.13
2019-05-03T23:28:35.956Z,8.07
2019-05-03T23:31:07.408Z,7.97
2019-05-03T23:33:38.771Z,7.50
2019-05-03T23:36:10.598Z,7.23
2019-05-03T23:38:42.313Z,6.80
2019-05-03T23:41:15.285Z,7.17
2019-05-03T23:43:46.791Z,6.77
2019-05-03T23:46:20.623Z,6.63
2019-05-03T23:48:51.946Z,7.10
2019-05-03T23:51:41.253Z,6.97
2019-05-03T23:54:14.825Z,6.83
2019-05-03T23:56:46.013Z,6.53
2019-05-03T23:59:17.790Z,6.80
